createdAt,value
2023-01-19T00:01:27.999Z,20.1
2023-01-19T00:03:27.740Z,22.6
2023-01-19T00:05:27.062Z,20.1
2023-01-19T00:07:26.819Z,20.6
2023-01-19T00:09:32.335Z,18.2
2023-01-19T00:11:25.966Z,19.5
2023-01-19T00:13:25.076Z,19.3
2023-01-19T00:15:24.411Z,22.4
2023-01-19T00:17:24.027Z,20.3
2023-01-19T00:19:23.910Z,23.0
2023-01-19T00:21:23.649Z,20.0
2023-01-19T00:23:22.816Z,23.1
2023-01-19T00:25:21.924Z,21.2
2023-01-19T00:27:21.952Z,22.9
2023-01-19T00:29:21.707Z,22.0
2023-01-19T00:31:21.850Z,21.7
2023-01-19T00:33:20.036Z,20.6
2023-01-19T00:35:19.415Z,21.1
2023-01-19T00:37:18.874Z,25.3
2023-01-19T00:39:18.377Z,23.3
2023-01-19T00:41:18.378Z,24.1
2023-01-19T00:43:17.338Z,25.1
2023-01-19T00:45:20.457Z,24.4
2023-01-19T00:47:16.965Z,25.7
2023-01-19T00:49:16.066Z,23.7
2023-01-19T00:51:15.353Z,23.7
2023-01-19T00:53:14.909Z,25.4
2023-01-19T00:55:15.576Z,25.5
2023-01-19T00:57:14.747Z,24.2
2023-01-19T00:59:13.584Z,26.3
2023-01-19T01:01:13.385Z,26.4
2023-01-19T01:03:12.683Z,25.1
2023-01-19T01:05:12.938Z,27.7
2023-01-19T01:07:11.313Z,25.2
2023-01-19T01:09:10.934Z,25.8
2023-01-19T01:11:10.163Z,26.9
2023-01-19T01:13:20.882Z,25.4
2023-01-19T01:15:12.676Z,27.0
2023-01-19T01:17:10.414Z,26.6
2023-01-19T01:19:08.236Z,26.3
2023-01-19T01:21:08.513Z,23.8
2023-01-19T01:25:06.902Z,25.7
2023-01-19T01:27:06.272Z,24.8
2023-01-19T01:29:07.432Z,27.5
2023-01-19T01:31:05.067Z,26.4
2023-01-19T01:33:04.695Z,26.9
2023-01-19T01:35:05.195Z,26.7
2023-01-19T01:37:03.845Z,25.0
2023-01-19T01:39:03.636Z,26.2
2023-01-19T01:41:03.163Z,26.2
2023-01-19T01:43:02.637Z,25.2
2023-01-19T01:45:05.159Z,26.7
2023-01-19T01:47:01.550Z,26.1
2023-01-19T01:49:06.593Z,24.6
2023-01-19T01:51:13.076Z,27.3
2023-01-19T01:53:06.347Z,27.3
2023-01-19T01:55:00.205Z,27.6
2023-01-19T01:57:02.269Z,24.1
2023-01-19T01:58:58.465Z,26.9
2023-01-19T02:01:07.668Z,24.6
2023-01-19T02:02:59.446Z,26.2
2023-01-19T02:05:03.065Z,24.5
2023-01-19T02:07:05.571Z,24.2
2023-01-19T02:09:11.925Z,25.6
2023-01-19T02:11:06.776Z,25.5
2023-01-19T02:13:04.570Z,25.6
2023-01-19T02:14:54.549Z,22.8
2023-01-19T02:16:53.273Z,31.2
2023-01-19T02:18:52.521Z,23.5
2023-01-19T02:20:58.193Z,29.2
2023-01-19T02:22:51.654Z,23.7
2023-01-19T02:24:52.034Z,24.8
2023-01-19T02:26:51.430Z,23.1
2023-01-19T02:28:56.540Z,24.9
2023-01-19T02:30:49.470Z,23.2
2023-01-19T02:32:49.202Z,23.9
2023-01-19T02:34:48.471Z,25.7
2023-01-19T02:36:51.862Z,24.0
2023-01-19T02:40:48.672Z,23.9
2023-01-19T02:42:49.846Z,23.2
2023-01-19T02:44:49.368Z,24.2
2023-01-19T02:46:45.666Z,25.9
2023-01-19T02:48:44.913Z,24.4
2023-01-19T02:52:45.134Z,23.5
2023-01-19T02:54:57.219Z,21.9
2023-01-19T02:56:52.134Z,23.8
2023-01-19T02:58:52.443Z,26.5
2023-01-19T03:00:50.926Z,25.5
2023-01-19T03:02:54.173Z,23.6
2023-01-19T03:04:57.233Z,24.9
2023-01-19T03:06:47.470Z,24.7
2023-01-19T03:08:47.552Z,24.6
2023-01-19T03:10:47.554Z,23.4
2023-01-19T03:12:43.396Z,25.8
2023-01-19T03:14:42.739Z,23.8
2023-01-19T03:16:42.502Z,22.5
2023-01-19T03:18:39.430Z,25.2
2023-01-19T03:20:37.745Z,23.8
2023-01-19T03:22:35.990Z,23.0
2023-01-19T03:24:39.311Z,24.5
2023-01-19T03:26:39.056Z,24.5
2023-01-19T03:28:38.199Z,23.0
2023-01-19T03:30:38.585Z,25.7
2023-01-19T03:32:38.931Z,23.4
2023-01-19T03:34:34.298Z,23.9
2023-01-19T03:38:35.011Z,25.2
2023-01-19T03:42:32.035Z,23.3
2023-01-19T03:44:33.744Z,23.6
2023-01-19T03:46:30.751Z,22.9
2023-01-19T03:48:31.341Z,26.5
2023-01-19T03:50:30.110Z,23.7
2023-01-19T03:52:31.524Z,21.2
2023-01-19T03:54:28.139Z,24.2
2023-01-19T03:58:28.560Z,25.3
2023-01-19T04:00:26.194Z,19.8
2023-01-19T04:02:26.145Z,20.0
2023-01-19T04:04:25.282Z,24.7
2023-01-19T04:06:25.990Z,22.4
2023-01-19T04:08:24.708Z,19.2
2023-01-19T04:10:24.668Z,20.5
2023-01-19T04:12:23.179Z,22.1
2023-01-19T04:14:22.627Z,21.9
2023-01-19T04:16:22.646Z,22.8
2023-01-19T04:18:21.851Z,20.6
2023-01-19T04:20:21.319Z,24.0
2023-01-19T04:22:20.929Z,25.5
2023-01-19T04:24:21.030Z,20.0
2023-01-19T04:26:20.469Z,22.4
2023-01-19T04:28:19.925Z,23.2
2023-01-19T04:30:18.926Z,24.7
2023-01-19T04:32:18.612Z,24.6
2023-01-19T04:34:17.693Z,22.8
2023-01-19T04:36:17.427Z,24.4
2023-01-19T04:38:16.680Z,26.2
2023-01-19T04:40:16.585Z,24.1
2023-01-19T04:42:16.284Z,20.9
2023-01-19T04:46:14.792Z,23.2
2023-01-19T04:48:15.072Z,25.8
2023-01-19T04:50:14.286Z,24.3
2023-01-19T04:52:13.250Z,21.5
2023-01-19T04:54:12.844Z,25.9
2023-01-19T04:56:12.289Z,24.1
2023-01-19T04:58:12.105Z,24.0
2023-01-19T05:02:10.963Z,27.7
2023-01-19T05:04:10.206Z,24.8
2023-01-19T05:06:09.739Z,24.7
2023-01-19T05:10:10.196Z,25.8
2023-01-19T05:12:08.399Z,24.1
2023-01-19T05:14:08.867Z,25.9
2023-01-19T05:16:07.934Z,27.3
2023-01-19T05:18:06.684Z,25.1
2023-01-19T05:20:08.526Z,28.9
2023-01-19T05:22:06.074Z,27.5
2023-01-19T05:24:05.651Z,28.0
2023-01-19T05:26:05.080Z,25.3
2023-01-19T05:28:04.311Z,26.4
2023-01-19T05:30:04.646Z,30.6
2023-01-19T05:32:03.662Z,28.0
2023-01-19T05:34:03.326Z,29.3
2023-01-19T05:36:03.603Z,24.9
2023-01-19T05:38:01.994Z,24.7
2023-01-19T05:40:01.355Z,27.9
2023-01-19T05:42:01.167Z,30.2
2023-01-19T05:44:00.149Z,25.6
2023-01-19T05:45:59.800Z,27.3
2023-01-19T05:47:59.881Z,27.3
2023-01-19T05:49:58.936Z,29.4
2023-01-19T05:51:59.062Z,31.0
2023-01-19T05:53:57.766Z,30.1
2023-01-19T05:55:59.370Z,28.3
2023-01-19T05:59:56.223Z,30.7
2023-01-19T06:01:56.206Z,26.7
2023-01-19T06:03:55.847Z,29.0
2023-01-19T06:05:57.028Z,30.0
2023-01-19T06:07:55.670Z,29.9
2023-01-19T06:09:53.665Z,30.2
2023-01-19T06:11:54.871Z,33.6
2023-01-19T06:13:52.675Z,31.8
2023-01-19T06:15:55.943Z,30.9
2023-01-19T06:17:51.722Z,28.3
2023-01-19T06:19:51.433Z,28.1
2023-01-19T06:21:51.377Z,28.4
2023-01-19T06:23:50.565Z,28.2
2023-01-19T06:25:49.708Z,32.0
2023-01-19T06:27:49.101Z,32.5
2023-01-19T06:29:48.596Z,29.2
2023-01-19T06:31:48.720Z,28.7
2023-01-19T06:33:47.658Z,29.3
2023-01-19T06:35:49.115Z,28.8
2023-01-19T06:37:46.502Z,33.2
2023-01-19T06:39:46.142Z,28.7
2023-01-19T06:41:46.099Z,31.3
2023-01-19T06:43:45.065Z,31.6
2023-01-19T06:45:45.257Z,30.8
2023-01-19T06:47:46.514Z,29.8
2023-01-19T06:49:43.430Z,31.3
2023-01-19T06:51:43.065Z,29.7
2023-01-19T06:53:42.743Z,27.5
2023-01-19T06:55:42.156Z,30.2
2023-01-19T06:57:41.717Z,32.4
2023-01-19T06:59:41.363Z,31.8
2023-01-19T07:01:40.356Z,27.7
2023-01-19T07:03:39.784Z,31.0
2023-01-19T07:05:39.355Z,31.9
2023-01-19T07:07:39.177Z,29.0
2023-01-19T07:09:38.139Z,30.0
2023-01-19T07:11:38.164Z,28.8
2023-01-19T07:13:38.942Z,31.0
2023-01-19T07:15:36.776Z,27.9
2023-01-19T07:17:36.622Z,36.1
2023-01-19T07:19:35.854Z,32.9
2023-01-19T07:21:35.196Z,29.0
2023-01-19T07:23:34.700Z,29.5
2023-01-19T07:25:33.966Z,29.5
2023-01-19T07:27:33.672Z,27.9
2023-01-19T07:29:33.581Z,32.6
2023-01-19T07:31:32.926Z,32.2
2023-01-19T07:33:32.156Z,30.5
2023-01-19T07:35:31.706Z,28.0
2023-01-19T07:37:30.872Z,29.7
2023-01-19T07:39:31.080Z,31.8
2023-01-19T07:41:29.897Z,31.2
2023-01-19T07:43:29.855Z,27.1
2023-01-19T07:45:29.166Z,27.8
2023-01-19T07:47:29.072Z,30.8
2023-01-19T07:49:28.037Z,28.6
2023-01-19T07:51:27.217Z,30.5
2023-01-19T07:53:27.063Z,31.3
2023-01-19T07:55:26.303Z,29.9
2023-01-19T07:57:25.731Z,30.0
2023-01-19T07:59:25.195Z,30.6
2023-01-19T08:01:25.168Z,32.2
2023-01-19T08:03:24.732Z,32.0
2023-01-19T08:05:24.758Z,31.6
2023-01-19T08:07:23.189Z,31.6
2023-01-19T08:09:23.441Z,32.6
2023-01-19T08:11:22.383Z,30.4
2023-01-19T08:13:21.582Z,26.9
2023-01-19T08:15:23.653Z,33.3
2023-01-19T08:17:21.176Z,31.6
2023-01-19T08:19:20.043Z,32.1
2023-01-19T08:21:19.542Z,28.4
2023-01-19T08:23:19.266Z,28.6
2023-01-19T08:25:18.478Z,32.7
2023-01-19T08:27:18.835Z,32.2
2023-01-19T08:29:17.545Z,30.9
2023-01-19T08:33:16.721Z,28.5
2023-01-19T08:35:16.444Z,33.9
2023-01-19T08:37:15.517Z,31.9
2023-01-19T08:41:16.232Z,31.1
2023-01-19T08:43:16.503Z,29.4
2023-01-19T08:45:13.402Z,31.4
2023-01-19T08:47:13.074Z,30.4
2023-01-19T08:49:12.721Z,28.6
2023-01-19T08:51:12.281Z,29.9
2023-01-19T08:55:11.028Z,34.9
2023-01-19T08:57:10.358Z,29.8
2023-01-19T08:59:11.922Z,34.5
2023-01-19T09:01:13.903Z,29.0
2023-01-19T09:03:12.547Z,30.5
2023-01-19T09:05:08.879Z,33.0
2023-01-19T09:07:07.980Z,31.0
2023-01-19T09:09:07.899Z,27.0
2023-01-19T09:11:10.349Z,32.0
2023-01-19T09:13:09.952Z,28.7
2023-01-19T09:15:07.440Z,32.3
2023-01-19T09:17:05.615Z,29.8
2023-01-19T09:19:07.749Z,30.1
2023-01-19T09:21:04.739Z,29.3
2023-01-19T09:23:07.574Z,30.4
2023-01-19T09:25:03.829Z,28.7
2023-01-19T09:27:03.175Z,35.7
2023-01-19T09:29:02.581Z,27.4
2023-01-19T09:31:04.626Z,30.0
2023-01-19T09:33:05.274Z,29.5
2023-01-19T09:35:01.052Z,28.8
2023-01-19T09:37:00.721Z,29.0
2023-01-19T09:39:00.116Z,29.7
2023-01-19T09:41:00.623Z,30.1
2023-01-19T09:43:11.918Z,29.0
2023-01-19T09:47:00.892Z,31.6
2023-01-19T09:49:03.807Z,31.8
2023-01-19T09:51:01.680Z,29.6
2023-01-19T09:53:03.565Z,30.4
2023-01-19T09:54:57.618Z,27.3
2023-01-19T09:58:55.940Z,29.1
2023-01-19T10:01:03.272Z,28.4
2023-01-19T10:02:58.238Z,29.9
2023-01-19T10:04:59.620Z,31.3
2023-01-19T10:06:58.764Z,29.0
2023-01-19T10:09:03.173Z,29.3
2023-01-19T10:10:54.615Z,26.2
2023-01-19T10:13:01.386Z,30.2
2023-01-19T10:15:00.636Z,29.7
2023-01-19T10:16:57.537Z,29.6
2023-01-19T10:18:53.303Z,30.1
2023-01-19T10:20:55.084Z,31.0
2023-01-19T10:22:49.841Z,29.3
2023-01-19T10:24:53.880Z,32.4
2023-01-19T10:26:51.935Z,29.4
2023-01-19T10:28:52.582Z,24.5
2023-01-19T10:30:48.143Z,25.5
2023-01-19T10:32:47.988Z,31.5
2023-01-19T10:34:48.205Z,26.2
2023-01-19T10:36:49.631Z,27.2
2023-01-19T10:38:46.737Z,26.2
2023-01-19T10:40:52.871Z,29.8
2023-01-19T10:42:44.880Z,29.3
2023-01-19T10:44:44.917Z,34.7
2023-01-19T10:46:47.894Z,27.0
2023-01-19T10:50:43.130Z,31.8
2023-01-19T10:52:43.742Z,24.0
2023-01-19T10:54:43.033Z,24.8
2023-01-19T10:56:42.525Z,28.6
2023-01-19T10:58:41.174Z,26.1
2023-01-19T11:00:42.140Z,27.5
2023-01-19T11:02:49.975Z,30.9
2023-01-19T11:04:41.182Z,33.2
2023-01-19T11:06:39.156Z,30.7
2023-01-19T11:08:38.796Z,29.3
2023-01-19T11:10:38.535Z,30.1
2023-01-19T11:12:40.514Z,30.2
2023-01-19T11:14:37.826Z,32.4
2023-01-19T11:16:39.096Z,29.2
2023-01-19T11:18:38.960Z,31.2
2023-01-19T11:20:47.477Z,29.4
2023-01-19T11:22:35.456Z,28.1
2023-01-19T11:24:37.215Z,30.1
2023-01-19T11:26:41.074Z,29.7
2023-01-19T11:28:37.119Z,30.6
2023-01-19T11:30:34.343Z,27.7
2023-01-19T11:32:35.983Z,28.9
2023-01-19T11:34:34.047Z,33.9
2023-01-19T11:36:34.380Z,28.1
2023-01-19T11:38:40.039Z,28.5
2023-01-19T11:40:33.232Z,26.5
2023-01-19T11:42:33.647Z,30.7
2023-01-19T11:46:33.038Z,31.9
2023-01-19T11:48:35.073Z,30.2
2023-01-19T11:50:34.126Z,27.7
2023-01-19T11:52:34.174Z,26.3
2023-01-19T11:54:34.533Z,28.8
2023-01-19T11:56:29.295Z,27.1
2023-01-19T11:58:26.841Z,27.5
2023-01-19T12:00:34.882Z,24.3
2023-01-19T12:02:28.353Z,27.2
2023-01-19T12:04:28.812Z,27.6
2023-01-19T12:06:29.907Z,26.7
2023-01-19T12:08:40.012Z,25.6
2023-01-19T12:10:27.386Z,26.6
2023-01-19T12:12:29.102Z,26.0
2023-01-19T12:14:27.832Z,28.4
2023-01-19T12:16:27.611Z,27.3
2023-01-19T12:18:25.970Z,31.3
2023-01-19T12:20:30.099Z,30.1
2023-01-19T12:22:23.061Z,32.1
2023-01-19T12:26:27.759Z,33.4
2023-01-19T12:28:26.719Z,33.7
2023-01-19T12:30:22.942Z,28.9
2023-01-19T12:32:28.953Z,32.7
2023-01-19T12:34:35.868Z,28.7
2023-01-19T12:36:34.877Z,31.6
2023-01-19T12:38:31.750Z,31.1
2023-01-19T12:40:23.433Z,26.7
2023-01-19T12:42:17.105Z,29.3
2023-01-19T12:44:23.318Z,31.7
2023-01-19T12:46:19.374Z,30.1
2023-01-19T12:48:24.289Z,30.5
2023-01-19T12:50:18.605Z,30.4
2023-01-19T12:52:22.470Z,27.5
2023-01-19T12:54:27.818Z,27.0
2023-01-19T12:56:13.736Z,27.8
2023-01-19T12:58:17.537Z,25.0
2023-01-19T13:00:27.947Z,24.5
2023-01-19T13:02:32.738Z,25.5
2023-01-19T13:06:11.606Z,27.3
2023-01-19T13:08:12.692Z,27.7
2023-01-19T13:10:29.766Z,25.7
2023-01-19T13:12:10.595Z,27.9
2023-01-19T13:14:28.901Z,26.5
2023-01-19T13:16:28.361Z,23.2
2023-01-19T13:18:08.871Z,27.1
2023-01-19T13:20:21.986Z,30.6
2023-01-19T13:22:27.441Z,29.2
2023-01-19T13:24:08.333Z,24.2
2023-01-19T13:26:13.769Z,23.8
2023-01-19T13:28:09.314Z,26.3
2023-01-19T13:30:11.333Z,26.1
2023-01-19T13:32:14.871Z,24.8
2023-01-19T13:34:12.637Z,24.8
2023-01-19T13:36:17.721Z,23.3
2023-01-19T13:38:04.552Z,22.8
2023-01-19T13:40:04.565Z,24.0
2023-01-19T13:42:05.870Z,25.1
2023-01-19T13:44:07.319Z,25.8
2023-01-19T13:46:02.820Z,22.6
2023-01-19T13:48:05.492Z,21.4
2023-01-19T13:50:01.254Z,26.0
2023-01-19T13:52:12.299Z,22.9
2023-01-19T13:54:00.724Z,23.3
2023-01-19T13:56:15.683Z,19.7
2023-01-19T14:00:03.511Z,21.2
2023-01-19T14:02:11.001Z,21.1
2023-01-19T14:03:58.988Z,25.2
2023-01-19T14:05:57.581Z,22.2
2023-01-19T14:10:05.441Z,21.6
2023-01-19T14:12:06.441Z,18.3
2023-01-19T14:13:55.396Z,20.3
2023-01-19T14:15:57.569Z,21.9
2023-01-19T14:18:14.317Z,20.7
2023-01-19T14:19:56.530Z,18.7
2023-01-19T14:22:00.456Z,23.3
2023-01-19T14:24:03.884Z,17.1
2023-01-19T14:25:52.855Z,20.6
2023-01-19T14:28:12.078Z,22.5
2023-01-19T14:29:53.925Z,21.8
2023-01-19T14:32:02.446Z,25.3
2023-01-19T14:33:53.974Z,26.0
2023-01-19T14:35:50.627Z,21.8
2023-01-19T14:39:52.417Z,23.0
2023-01-19T14:43:49.253Z,24.7
2023-01-19T14:45:48.589Z,21.0
2023-01-19T14:47:54.488Z,23.7
2023-01-19T14:49:47.487Z,23.9
2023-01-19T14:51:48.780Z,19.5
2023-01-19T14:53:50.913Z,21.5
2023-01-19T14:55:49.387Z,25.9
2023-01-19T14:57:46.040Z,22.4
2023-01-19T14:59:48.609Z,23.4
2023-01-19T15:01:44.996Z,24.4
2023-01-19T15:03:45.605Z,22.7
2023-01-19T15:05:46.235Z,22.2
2023-01-19T15:07:46.188Z,24.0
2023-01-19T15:09:43.264Z,22.5
2023-01-19T15:11:46.380Z,23.2
2023-01-19T15:13:43.510Z,22.0
2023-01-19T15:19:40.908Z,22.6
2023-01-19T15:21:41.317Z,25.2
2023-01-19T15:23:40.352Z,23.3
2023-01-19T15:25:39.366Z,25.3
2023-01-19T15:27:39.048Z,24.6
2023-01-19T15:29:39.323Z,23.9
2023-01-19T15:31:38.295Z,24.2
2023-01-19T15:33:37.781Z,22.8
2023-01-19T15:35:37.770Z,22.7
2023-01-19T15:37:36.606Z,24.2
2023-01-19T15:39:36.331Z,27.0
2023-01-19T15:41:37.902Z,22.4
2023-01-19T15:43:35.406Z,24.8
2023-01-19T15:45:36.899Z,22.8
2023-01-19T15:47:34.402Z,24.5
2023-01-19T15:49:33.888Z,24.8
2023-01-19T15:51:33.491Z,25.7
2023-01-19T15:53:33.693Z,27.8
2023-01-19T15:55:33.147Z,24.2
2023-01-19T15:57:34.115Z,24.4
2023-01-19T15:59:31.610Z,25.9
2023-01-19T16:01:33.308Z,26.1
2023-01-19T16:03:30.775Z,23.5
2023-01-19T16:05:42.516Z,27.0
2023-01-19T16:07:29.934Z,23.3
2023-01-19T16:09:29.269Z,22.5
2023-01-19T16:11:31.635Z,24.1
2023-01-19T16:13:30.075Z,24.6
2023-01-19T16:15:28.002Z,23.2
2023-01-19T16:17:27.748Z,24.9
2023-01-19T16:19:27.095Z,23.6
2023-01-19T16:21:26.760Z,23.0
2023-01-19T16:23:26.324Z,23.6
2023-01-19T16:25:27.648Z,24.7
2023-01-19T16:27:27.021Z,23.0
2023-01-19T16:29:25.496Z,23.0
2023-01-19T16:31:24.958Z,25.5
2023-01-19T16:33:23.712Z,25.4
2023-01-19T16:35:23.299Z,29.1
2023-01-19T16:37:22.745Z,27.0
2023-01-19T16:39:22.327Z,27.0
2023-01-19T16:41:21.983Z,26.7
2023-01-19T16:43:21.432Z,24.9
2023-01-19T16:45:20.977Z,25.8
2023-01-19T16:47:20.809Z,31.0
2023-01-19T16:49:21.908Z,40.7
2023-01-19T16:51:19.621Z,35.5
2023-01-19T16:53:18.892Z,29.1
2023-01-19T16:55:18.539Z,28.6
2023-01-19T16:57:17.951Z,24.7
2023-01-19T16:59:18.170Z,28.3
2023-01-19T17:03:16.746Z,28.8
2023-01-19T17:05:16.264Z,26.0
2023-01-19T17:07:18.882Z,27.9
2023-01-19T17:09:15.879Z,24.4
2023-01-19T17:11:19.844Z,30.3
2023-01-19T17:13:14.074Z,28.1
2023-01-19T17:15:14.040Z,25.1
2023-01-19T17:17:13.085Z,26.0
2023-01-19T17:19:15.729Z,29.6
2023-01-19T17:21:13.261Z,27.7
2023-01-19T17:25:11.461Z,32.5
2023-01-19T17:27:11.419Z,28.9
2023-01-19T17:29:10.538Z,32.0
2023-01-19T17:31:12.222Z,29.2
2023-01-19T17:33:09.212Z,30.3
2023-01-19T17:35:09.156Z,26.8
2023-01-19T17:37:08.204Z,29.5
2023-01-19T17:39:13.213Z,25.8
2023-01-19T17:41:11.918Z,28.1
2023-01-19T17:43:07.097Z,27.4
2023-01-19T17:45:07.728Z,28.7
2023-01-19T17:47:05.648Z,30.8
2023-01-19T17:49:06.731Z,29.2
2023-01-19T17:51:07.225Z,30.2
2023-01-19T17:53:04.677Z,29.4
2023-01-19T17:55:04.509Z,29.4
2023-01-19T17:57:03.107Z,32.4
2023-01-19T17:59:04.455Z,32.1
2023-01-19T18:01:07.409Z,34.3
2023-01-19T18:03:02.250Z,46.6
2023-01-19T18:05:02.118Z,56.8
2023-01-19T18:07:00.948Z,53.6
2023-01-19T18:09:01.330Z,46.3
2023-01-19T18:11:01.106Z,42.4
2023-01-19T18:12:59.050Z,32.9
2023-01-19T18:14:58.635Z,30.1
2023-01-19T18:16:58.130Z,29.3
2023-01-19T18:18:57.797Z,31.3
2023-01-19T18:20:58.617Z,34.6
2023-01-19T18:22:57.114Z,33.1
2023-01-19T18:24:57.369Z,33.7
2023-01-19T18:26:55.904Z,35.1
2023-01-19T18:28:56.078Z,32.3
2023-01-19T18:30:54.932Z,35.6
2023-01-19T18:32:53.960Z,37.3
2023-01-19T18:36:53.835Z,37.5
2023-01-19T18:38:52.655Z,37.4
2023-01-19T18:40:59.731Z,34.3
2023-01-19T18:42:51.479Z,35.0
2023-01-19T18:44:50.950Z,35.9
2023-01-19T18:46:51.160Z,33.8
2023-01-19T18:50:49.580Z,32.4
2023-01-19T18:52:50.416Z,34.2
2023-01-19T18:54:48.882Z,34.5
2023-01-19T18:56:49.122Z,36.1
2023-01-19T18:58:47.252Z,36.4
2023-01-19T19:00:47.638Z,33.9
2023-01-19T19:02:46.188Z,33.0
2023-01-19T19:04:45.791Z,36.4
2023-01-19T19:06:45.133Z,33.4
2023-01-19T19:10:44.483Z,33.8
2023-01-19T19:12:43.559Z,34.3
2023-01-19T19:14:42.976Z,36.3
2023-01-19T19:16:42.644Z,34.1
2023-01-19T19:18:42.103Z,37.2
2023-01-19T19:22:41.565Z,38.0
2023-01-19T19:24:40.529Z,36.7
2023-01-19T19:26:41.197Z,33.9
2023-01-19T19:28:39.871Z,34.5
2023-01-19T19:30:40.161Z,31.5
2023-01-19T19:32:38.526Z,30.6
2023-01-19T19:34:38.089Z,32.5
2023-01-19T19:38:38.450Z,32.1
2023-01-19T19:40:36.979Z,33.9
2023-01-19T19:42:36.111Z,34.8
2023-01-19T19:44:35.159Z,33.0
2023-01-19T19:46:34.719Z,32.9
2023-01-19T19:48:34.972Z,30.1
2023-01-19T19:50:33.885Z,36.2
2023-01-19T19:52:37.073Z,39.6
2023-01-19T19:54:32.706Z,37.3
2023-01-19T19:56:33.434Z,33.8
2023-01-19T19:58:32.036Z,35.7
2023-01-19T20:00:31.065Z,30.9
2023-01-19T20:02:31.015Z,32.4
2023-01-19T20:04:29.990Z,31.3
2023-01-19T20:06:29.360Z,33.3
2023-01-19T20:08:29.017Z,31.1
2023-01-19T20:10:29.103Z,34.5
2023-01-19T20:12:28.162Z,32.7
2023-01-19T20:14:27.651Z,30.0
2023-01-19T20:16:26.986Z,28.1
2023-01-19T20:18:26.330Z,29.8
2023-01-19T20:20:26.689Z,29.3
2023-01-19T20:22:24.995Z,32.8
2023-01-19T20:24:24.503Z,30.7
2023-01-19T20:26:26.894Z,28.7
2023-01-19T20:28:24.107Z,31.7
2023-01-19T20:30:23.251Z,30.9
2023-01-19T20:32:23.138Z,31.4
2023-01-19T20:34:25.217Z,33.0
2023-01-19T20:36:23.316Z,26.6
2023-01-19T20:38:20.830Z,35.5
2023-01-19T20:40:20.644Z,28.9
2023-01-19T20:42:19.861Z,34.6
2023-01-19T20:44:22.203Z,30.8
2023-01-19T20:46:19.055Z,30.0
2023-01-19T20:48:18.712Z,31.8
2023-01-19T20:50:18.248Z,29.6
2023-01-19T20:52:17.485Z,29.5
2023-01-19T20:54:18.592Z,29.6
2023-01-19T20:56:16.373Z,34.8
2023-01-19T20:58:15.740Z,29.9
2023-01-19T21:00:15.359Z,30.6
2023-01-19T21:02:15.814Z,32.9
2023-01-19T21:04:15.035Z,29.5
2023-01-19T21:06:15.395Z,31.6
2023-01-19T21:08:13.998Z,32.7
2023-01-19T21:10:12.917Z,33.2
2023-01-19T21:12:14.196Z,30.9
2023-01-19T21:14:11.651Z,32.3
2023-01-19T21:16:11.596Z,34.4
2023-01-19T21:18:10.582Z,33.4
2023-01-19T21:22:09.555Z,36.3
2023-01-19T21:24:09.896Z,33.6
2023-01-19T21:26:10.296Z,33.9
2023-01-19T21:28:07.996Z,36.8
2023-01-19T21:30:08.350Z,34.8
2023-01-19T21:32:07.166Z,36.3
2023-01-19T21:34:06.388Z,38.0
2023-01-19T21:36:07.248Z,35.4
2023-01-19T21:38:05.731Z,36.6
2023-01-19T21:40:05.826Z,35.0
2023-01-19T21:42:04.708Z,36.7
2023-01-19T21:44:04.407Z,35.4
2023-01-19T21:46:13.423Z,36.3
2023-01-19T21:48:03.036Z,40.7
2023-01-19T21:50:03.311Z,40.4
2023-01-19T21:52:01.707Z,35.7
2023-01-19T21:54:02.037Z,36.0
2023-01-19T21:56:00.785Z,36.5
2023-01-19T21:58:00.959Z,38.3
2023-01-19T21:59:59.941Z,38.1
2023-01-19T22:01:59.347Z,34.7
2023-01-19T22:06:02.591Z,37.9
2023-01-19T22:07:57.502Z,35.3
2023-01-19T22:09:56.931Z,35.1
2023-01-19T22:11:56.399Z,36.2
2023-01-19T22:13:58.588Z,35.3
2023-01-19T22:15:58.800Z,34.9
2023-01-19T22:17:55.318Z,37.8
2023-01-19T22:19:55.052Z,35.3
2023-01-19T22:21:53.761Z,37.6
2023-01-19T22:23:54.912Z,37.8
2023-01-19T22:25:52.697Z,37.1
2023-01-19T22:27:52.456Z,36.5
2023-01-19T22:29:52.218Z,40.4
2023-01-19T22:31:52.380Z,39.4
2023-01-19T22:33:51.925Z,38.0
2023-01-19T22:35:50.087Z,39.8
2023-01-19T22:37:49.542Z,37.4
2023-01-19T22:41:48.741Z,39.7
2023-01-19T22:45:47.555Z,37.8
2023-01-19T22:47:47.379Z,34.9
2023-01-19T22:49:46.603Z,39.9
2023-01-19T22:51:46.312Z,44.2
2023-01-19T22:53:46.131Z,35.5
2023-01-19T22:55:44.981Z,39.0
2023-01-19T22:57:44.573Z,40.0
2023-01-19T22:59:43.954Z,35.1
2023-01-19T23:01:43.963Z,33.1
2023-01-19T23:03:43.340Z,36.3
2023-01-19T23:05:42.746Z,35.2
2023-01-19T23:07:41.944Z,38.1
2023-01-19T23:09:41.457Z,35.9
2023-01-19T23:11:42.860Z,39.4
2023-01-19T23:13:40.788Z,41.2
2023-01-19T23:15:39.891Z,41.2
2023-01-19T23:17:40.734Z,37.7
2023-01-19T23:19:38.839Z,37.5
2023-01-19T23:21:39.534Z,38.5
2023-01-19T23:23:38.637Z,37.8
2023-01-19T23:25:37.297Z,38.8
2023-01-19T23:27:36.726Z,37.3
2023-01-19T23:29:36.352Z,37.4
2023-01-19T23:31:37.845Z,40.5
2023-01-19T23:33:35.048Z,37.3
2023-01-19T23:35:34.599Z,40.4
2023-01-19T23:37:34.192Z,38.1
2023-01-19T23:39:34.033Z,38.3
2023-01-19T23:41:33.851Z,39.5
2023-01-19T23:43:33.361Z,40.1
2023-01-19T23:45:34.117Z,35.3
2023-01-19T23:47:32.515Z,40.9
2023-01-19T23:49:31.008Z,41.9
2023-01-19T23:51:32.105Z,38.6
2023-01-19T23:53:29.880Z,44.7
2023-01-19T23:55:29.494Z,35.8
2023-01-19T23:57:29.762Z,41.4
2023-01-19T23:59:28.331Z,40.6
